sensor_id;sensor_type;location;lat;lon;timestamp;P1;durP1;ratioP1;P2;durP2;ratioP2
41719;SDS011;27405;53.316;-6.294;2023-06-22T00:02:16;6.40;;;3.40;;
41719;SDS011;27405;53.316;-6.294;2023-06-22T00:04:43;7.03;;;3.38;;
41719;SDS011;27405;53.316;-6.294;2023-06-22T00:07:08;7.85;;;3.50;;
41719;SDS011;27405;53.316;-6.294;2023-06-22T00:09:34;6.47;;;3.17;;
41719;SDS011;27405;53.316;-6.294;2023-06-22T00:12:00;8.55;;;3.15;;
41719;SDS011;27405;53.316;-6.294;2023-06-22T00:14:26;8.98;;;3.40;;
41719;SDS011;27405;53.316;-6.294;2023-06-22T00:16:52;11.60;;;3.70;;
41719;SDS011;27405;53.316;-6.294;2023-06-22T00:19:22;6.78;;;3.25;;
41719;SDS011;27405;53.316;-6.294;2023-06-22T00:21:49;11.20;;;3.60;;
41719;SDS011;27405;53.316;-6.294;2023-06-22T00:24:18;8.68;;;3.40;;
41719;SDS011;27405;53.316;-6.294;2023-06-22T00:26:47;6.43;;;3.40;;
41719;SDS011;27405;53.316;-6.294;2023-06-22T00:29:13;7.03;;;3.50;;
41719;SDS011;27405;53.316;-6.294;2023-06-22T00:31:39;8.10;;;3.40;;
41719;SDS011;27405;53.316;-6.294;2023-06-22T00:34:05;7.70;;;3.80;;
41719;SDS011;27405;53.316;-6.294;2023-06-22T00:36:33;7.53;;;3.85;;
41719;SDS011;27405;53.316;-6.294;2023-06-22T00:38:59;7.88;;;3.42;;
41719;SDS011;27405;53.316;-6.294;2023-06-22T00:41:25;11.45;;;3.53;;
41719;SDS011;27405;53.316;-6.294;2023-06-22T00:43:53;6.80;;;3.30;;
41719;SDS011;27405;53.316;-6.294;2023-06-22T00:46:19;7.20;;;3.53;;
41719;SDS011;27405;53.316;-6.294;2023-06-22T00:48:46;11.25;;;3.63;;
41719;SDS011;27405;53.316;-6.294;2023-06-22T00:51:12;7.03;;;3.40;;
41719;SDS011;27405;53.316;-6.294;2023-06-22T00:53:37;6.43;;;3.15;;
41719;SDS011;27405;53.316;-6.294;2023-06-22T00:56:03;7.03;;;3.20;;
41719;SDS011;27405;53.316;-6.294;2023-06-22T00:58:30;5.60;;;3.35;;
41719;SDS011;27405;53.316;-6.294;2023-06-22T01:00:56;10.30;;;3.90;;
41719;SDS011;27405;53.316;-6.294;2023-06-22T01:03:22;10.60;;;3.08;;
41719;SDS011;27405;53.316;-6.294;2023-06-22T01:05:48;8.35;;;3.10;;
41719;SDS011;27405;53.316;-6.294;2023-06-22T01:08:20;7.53;;;3.50;;
41719;SDS011;27405;53.316;-6.294;2023-06-22T01:11:06;6.45;;;3.42;;
41719;SDS011;27405;53.316;-6.294;2023-06-22T01:13:37;10.32;;;4.03;;
41719;SDS011;27405;53.316;-6.294;2023-06-22T01:16:13;10.82;;;4.18;;
41719;SDS011;27405;53.316;-6.294;2023-06-22T01:18:42;7.57;;;3.40;;
41719;SDS011;27405;53.316;-6.294;2023-06-22T01:21:11;7.00;;;3.60;;
41719;SDS011;27405;53.316;-6.294;2023-06-22T01:27:30;4.95;;;3.13;;
41719;SDS011;27405;53.316;-6.294;2023-06-22T01:29:47;6.85;;;3.13;;
41719;SDS011;27405;53.316;-6.294;2023-06-22T01:32:20;8.85;;;3.75;;
41719;SDS011;27405;53.316;-6.294;2023-06-22T01:34:46;9.07;;;3.45;;
41719;SDS011;27405;53.316;-6.294;2023-06-22T01:37:13;8.48;;;3.17;;
41719;SDS011;27405;53.316;-6.294;2023-06-22T01:39:40;7.35;;;3.60;;
41719;SDS011;27405;53.316;-6.294;2023-06-22T01:42:06;7.88;;;3.75;;
41719;SDS011;27405;53.316;-6.294;2023-06-22T01:44:32;11.45;;;3.65;;
41719;SDS011;27405;53.316;-6.294;2023-06-22T01:46:59;10.73;;;4.00;;
41719;SDS011;27405;53.316;-6.294;2023-06-22T01:49:24;8.98;;;3.78;;
41719;SDS011;27405;53.316;-6.294;2023-06-22T01:51:50;8.95;;;3.85;;
41719;SDS011;27405;53.316;-6.294;2023-06-22T01:54:16;10.23;;;3.97;;
41719;SDS011;27405;53.316;-6.294;2023-06-22T01:56:42;9.57;;;3.92;;
41719;SDS011;27405;53.316;-6.294;2023-06-22T01:59:17;8.55;;;3.70;;
41719;SDS011;27405;53.316;-6.294;2023-06-22T02:02:06;10.95;;;4.20;;
41719;SDS011;27405;53.316;-6.294;2023-06-22T02:04:34;7.55;;;3.65;;
41719;SDS011;27405;53.316;-6.294;2023-06-22T02:07:08;7.38;;;3.70;;
41719;SDS011;27405;53.316;-6.294;2023-06-22T02:09:37;9.07;;;3.80;;
41719;SDS011;27405;53.316;-6.294;2023-06-22T02:12:07;7.78;;;3.70;;
41719;SDS011;27405;53.316;-6.294;2023-06-22T02:14:35;8.82;;;3.72;;
41719;SDS011;27405;53.316;-6.294;2023-06-22T02:17:02;10.77;;;3.83;;
41719;SDS011;27405;53.316;-6.294;2023-06-22T02:19:29;5.38;;;3.50;;
41719;SDS011;27405;53.316;-6.294;2023-06-22T02:21:58;11.27;;;4.05;;
41719;SDS011;27405;53.316;-6.294;2023-06-22T02:24:25;11.88;;;4.10;;
41719;SDS011;27405;53.316;-6.294;2023-06-22T02:26:50;8.90;;;3.90;;
41719;SDS011;27405;53.316;-6.294;2023-06-22T02:29:16;8.88;;;3.90;;
41719;SDS011;27405;53.316;-6.294;2023-06-22T02:31:42;8.60;;;3.80;;
41719;SDS011;27405;53.316;-6.294;2023-06-22T02:34:08;7.00;;;4.18;;
41719;SDS011;27405;53.316;-6.294;2023-06-22T02:36:34;9.23;;;4.20;;
41719;SDS011;27405;53.316;-6.294;2023-06-22T02:39:00;8.27;;;3.92;;
41719;SDS011;27405;53.316;-6.294;2023-06-22T02:41:26;10.55;;;4.10;;
41719;SDS011;27405;53.316;-6.294;2023-06-22T02:43:52;10.35;;;4.15;;
41719;SDS011;27405;53.316;-6.294;2023-06-22T02:46:18;9.90;;;3.78;;
41719;SDS011;27405;53.316;-6.294;2023-06-22T02:48:44;8.27;;;4.18;;
41719;SDS011;27405;53.316;-6.294;2023-06-22T02:51:09;8.27;;;4.00;;
41719;SDS011;27405;53.316;-6.294;2023-06-22T02:53:35;8.93;;;3.95;;
41719;SDS011;27405;53.316;-6.294;2023-06-22T02:56:04;12.32;;;4.80;;
41719;SDS011;27405;53.316;-6.294;2023-06-22T02:58:32;11.02;;;4.10;;
41719;SDS011;27405;53.316;-6.294;2023-06-22T03:01:03;7.00;;;3.72;;
41719;SDS011;27405;53.316;-6.294;2023-06-22T03:03:30;7.13;;;4.00;;
41719;SDS011;27405;53.316;-6.294;2023-06-22T03:05:56;9.25;;;3.80;;
41719;SDS011;27405;53.316;-6.294;2023-06-22T03:08:22;9.85;;;4.30;;
41719;SDS011;27405;53.316;-6.294;2023-06-22T03:10:47;9.52;;;4.28;;
41719;SDS011;27405;53.316;-6.294;2023-06-22T03:13:13;8.77;;;4.60;;
41719;SDS011;27405;53.316;-6.294;2023-06-22T03:15:39;10.90;;;4.95;;
41719;SDS011;27405;53.316;-6.294;2023-06-22T03:18:04;9.65;;;4.50;;
41719;SDS011;27405;53.316;-6.294;2023-06-22T03:20:30;7.70;;;4.72;;
41719;SDS011;27405;53.316;-6.294;2023-06-22T03:22:58;11.47;;;4.97;;
41719;SDS011;27405;53.316;-6.294;2023-06-22T03:25:24;8.77;;;4.80;;
41719;SDS011;27405;53.316;-6.294;2023-06-22T03:27:50;12.90;;;5.22;;
41719;SDS011;27405;53.316;-6.294;2023-06-22T03:30:16;7.93;;;4.75;;
41719;SDS011;27405;53.316;-6.294;2023-06-22T03:32:42;10.45;;;4.93;;
41719;SDS011;27405;53.316;-6.294;2023-06-22T03:35:08;11.65;;;4.47;;
41719;SDS011;27405;53.316;-6.294;2023-06-22T03:37:35;11.10;;;4.30;;
41719;SDS011;27405;53.316;-6.294;2023-06-22T03:40:01;9.00;;;4.55;;
41719;SDS011;27405;53.316;-6.294;2023-06-22T03:42:30;8.65;;;4.35;;
41719;SDS011;27405;53.316;-6.294;2023-06-22T03:44:55;11.05;;;4.85;;
41719;SDS011;27405;53.316;-6.294;2023-06-22T03:47:22;9.07;;;4.32;;
41719;SDS011;27405;53.316;-6.294;2023-06-22T03:49:48;11.52;;;4.43;;
41719;SDS011;27405;53.316;-6.294;2023-06-22T03:52:14;10.25;;;4.85;;
41719;SDS011;27405;53.316;-6.294;2023-06-22T03:54:39;9.43;;;4.82;;
41719;SDS011;27405;53.316;-6.294;2023-06-22T03:57:05;10.13;;;4.75;;
41719;SDS011;27405;53.316;-6.294;2023-06-22T03:59:31;8.77;;;4.95;;
41719;SDS011;27405;53.316;-6.294;2023-06-22T04:01:57;8.07;;;4.63;;
41719;SDS011;27405;53.316;-6.294;2023-06-22T04:04:23;9.85;;;4.68;;
41719;SDS011;27405;53.316;-6.294;2023-06-22T04:06:48;11.73;;;4.95;;
41719;SDS011;27405;53.316;-6.294;2023-06-22T04:09:14;9.55;;;4.60;;
41719;SDS011;27405;53.316;-6.294;2023-06-22T04:11:40;8.07;;;4.53;;
41719;SDS011;27405;53.316;-6.294;2023-06-22T04:14:05;9.88;;;4.97;;
41719;SDS011;27405;53.316;-6.294;2023-06-22T04:16:31;12.05;;;5.28;;
41719;SDS011;27405;53.316;-6.294;2023-06-22T04:18:56;10.23;;;4.95;;
41719;SDS011;27405;53.316;-6.294;2023-06-22T04:21:22;11.55;;;5.03;;
41719;SDS011;27405;53.316;-6.294;2023-06-22T04:23:48;9.85;;;4.90;;
41719;SDS011;27405;53.316;-6.294;2023-06-22T04:26:13;13.82;;;5.60;;
41719;SDS011;27405;53.316;-6.294;2023-06-22T04:28:39;9.05;;;5.15;;
41719;SDS011;27405;53.316;-6.294;2023-06-22T04:31:06;7.68;;;5.00;;
41719;SDS011;27405;53.316;-6.294;2023-06-22T04:33:31;10.45;;;4.60;;
41719;SDS011;27405;53.316;-6.294;2023-06-22T04:35:58;10.65;;;5.00;;
41719;SDS011;27405;53.316;-6.294;2023-06-22T04:38:26;10.73;;;5.10;;
41719;SDS011;27405;53.316;-6.294;2023-06-22T04:40:52;12.27;;;5.03;;
41719;SDS011;27405;53.316;-6.294;2023-06-22T04:43:18;9.57;;;4.82;;
41719;SDS011;27405;53.316;-6.294;2023-06-22T04:45:44;10.35;;;5.20;;
41719;SDS011;27405;53.316;-6.294;2023-06-22T04:48:10;10.15;;;5.30;;
41719;SDS011;27405;53.316;-6.294;2023-06-22T04:50:40;10.48;;;5.20;;
41719;SDS011;27405;53.316;-6.294;2023-06-22T04:53:07;10.43;;;5.30;;
41719;SDS011;27405;53.316;-6.294;2023-06-22T04:55:34;9.75;;;5.30;;
41719;SDS011;27405;53.316;-6.294;2023-06-22T04:58:02;10.10;;;4.95;;
41719;SDS011;27405;53.316;-6.294;2023-06-22T05:00:30;10.98;;;4.88;;
41719;SDS011;27405;53.316;-6.294;2023-06-22T05:02:56;13.00;;;5.20;;
41719;SDS011;27405;53.316;-6.294;2023-06-22T05:05:23;8.57;;;4.80;;
41719;SDS011;27405;53.316;-6.294;2023-06-22T05:07:50;9.98;;;4.82;;
41719;SDS011;27405;53.316;-6.294;2023-06-22T05:10:18;10.68;;;4.85;;
41719;SDS011;27405;53.316;-6.294;2023-06-22T05:12:45;7.85;;;4.57;;
41719;SDS011;27405;53.316;-6.294;2023-06-22T05:15:11;9.90;;;4.90;;
41719;SDS011;27405;53.316;-6.294;2023-06-22T05:17:37;8.35;;;4.38;;
41719;SDS011;27405;53.316;-6.294;2023-06-22T05:20:16;9.98;;;4.55;;
41719;SDS011;27405;53.316;-6.294;2023-06-22T05:22:43;11.35;;;4.78;;
41719;SDS011;27405;53.316;-6.294;2023-06-22T05:25:09;8.68;;;4.55;;
41719;SDS011;27405;53.316;-6.294;2023-06-22T05:27:36;9.90;;;5.30;;
41719;SDS011;27405;53.316;-6.294;2023-06-22T05:30:08;10.80;;;5.15;;
41719;SDS011;27405;53.316;-6.294;2023-06-22T05:32:34;10.65;;;4.90;;
41719;SDS011;27405;53.316;-6.294;2023-06-22T05:35:01;13.60;;;5.13;;
41719;SDS011;27405;53.316;-6.294;2023-06-22T05:37:28;9.55;;;5.00;;
41719;SDS011;27405;53.316;-6.294;2023-06-22T05:39:54;10.07;;;5.35;;
41719;SDS011;27405;53.316;-6.294;2023-06-22T05:42:20;15.52;;;5.80;;
41719;SDS011;27405;53.316;-6.294;2023-06-22T05:44:46;12.70;;;5.50;;
41719;SDS011;27405;53.316;-6.294;2023-06-22T05:47:12;10.73;;;5.60;;
41719;SDS011;27405;53.316;-6.294;2023-06-22T05:49:38;14.75;;;6.45;;
41719;SDS011;27405;53.316;-6.294;2023-06-22T05:52:04;14.07;;;6.38;;
41719;SDS011;27405;53.316;-6.294;2023-06-22T05:54:30;14.32;;;8.20;;
41719;SDS011;27405;53.316;-6.294;2023-06-22T05:56:55;21.08;;;9.95;;
41719;SDS011;27405;53.316;-6.294;2023-06-22T05:59:21;19.90;;;11.82;;
41719;SDS011;27405;53.316;-6.294;2023-06-22T06:01:47;20.67;;;13.30;;
41719;SDS011;27405;53.316;-6.294;2023-06-22T06:04:16;21.70;;;13.50;;
41719;SDS011;27405;53.316;-6.294;2023-06-22T06:06:45;24.80;;;13.88;;
41719;SDS011;27405;53.316;-6.294;2023-06-22T06:09:14;23.43;;;13.47;;
41719;SDS011;27405;53.316;-6.294;2023-06-22T06:11:39;24.95;;;13.38;;
41719;SDS011;27405;53.316;-6.294;2023-06-22T06:14:05;19.98;;;12.02;;
41719;SDS011;27405;53.316;-6.294;2023-06-22T06:16:31;21.95;;;12.40;;
41719;SDS011;27405;53.316;-6.294;2023-06-22T06:18:57;23.45;;;12.68;;
41719;SDS011;27405;53.316;-6.294;2023-06-22T06:21:23;21.23;;;12.02;;
41719;SDS011;27405;53.316;-6.294;2023-06-22T06:23:49;22.55;;;13.60;;
41719;SDS011;27405;53.316;-6.294;2023-06-22T06:26:15;22.45;;;14.15;;
41719;SDS011;27405;53.316;-6.294;2023-06-22T06:28:52;22.75;;;13.25;;
41719;SDS011;27405;53.316;-6.294;2023-06-22T06:31:19;25.42;;;15.02;;
41719;SDS011;27405;53.316;-6.294;2023-06-22T06:33:45;22.00;;;13.93;;
41719;SDS011;27405;53.316;-6.294;2023-06-22T06:36:11;25.42;;;14.82;;
41719;SDS011;27405;53.316;-6.294;2023-06-22T06:38:37;24.90;;;14.07;;
41719;SDS011;27405;53.316;-6.294;2023-06-22T06:41:02;24.25;;;13.32;;
41719;SDS011;27405;53.316;-6.294;2023-06-22T06:43:28;21.55;;;13.07;;
41719;SDS011;27405;53.316;-6.294;2023-06-22T06:45:54;19.35;;;10.57;;
41719;SDS011;27405;53.316;-6.294;2023-06-22T06:48:19;21.25;;;10.18;;
41719;SDS011;27405;53.316;-6.294;2023-06-22T06:50:45;15.25;;;9.35;;
41719;SDS011;27405;53.316;-6.294;2023-06-22T06:53:10;23.02;;;9.90;;
41719;SDS011;27405;53.316;-6.294;2023-06-22T06:55:36;16.88;;;9.15;;
41719;SDS011;27405;53.316;-6.294;2023-06-22T06:58:02;21.08;;;9.32;;
41719;SDS011;27405;53.316;-6.294;2023-06-22T07:00:32;17.95;;;8.52;;
41719;SDS011;27405;53.316;-6.294;2023-06-22T07:02:58;15.63;;;8.90;;
41719;SDS011;27405;53.316;-6.294;2023-06-22T07:05:24;13.13;;;7.50;;
41719;SDS011;27405;53.316;-6.294;2023-06-22T07:07:49;14.75;;;7.90;;
41719;SDS011;27405;53.316;-6.294;2023-06-22T07:10:15;17.55;;;8.02;;
41719;SDS011;27405;53.316;-6.294;2023-06-22T07:12:41;15.18;;;7.35;;
41719;SDS011;27405;53.316;-6.294;2023-06-22T07:15:07;14.98;;;7.88;;
41719;SDS011;27405;53.316;-6.294;2023-06-22T07:17:34;17.08;;;7.25;;
41719;SDS011;27405;53.316;-6.294;2023-06-22T07:20:01;14.13;;;7.13;;
41719;SDS011;27405;53.316;-6.294;2023-06-22T07:22:37;14.05;;;7.18;;
41719;SDS011;27405;53.316;-6.294;2023-06-22T07:25:03;17.63;;;7.18;;
41719;SDS011;27405;53.316;-6.294;2023-06-22T07:27:34;15.73;;;7.40;;
41719;SDS011;27405;53.316;-6.294;2023-06-22T07:30:05;11.65;;;6.53;;
41719;SDS011;27405;53.316;-6.294;2023-06-22T07:32:32;12.10;;;6.10;;
41719;SDS011;27405;53.316;-6.294;2023-06-22T07:34:57;12.90;;;6.82;;
41719;SDS011;27405;53.316;-6.294;2023-06-22T07:37:23;12.88;;;6.50;;
41719;SDS011;27405;53.316;-6.294;2023-06-22T07:39:49;10.52;;;6.15;;
41719;SDS011;27405;53.316;-6.294;2023-06-22T07:42:18;15.90;;;6.60;;
41719;SDS011;27405;53.316;-6.294;2023-06-22T07:44:44;13.55;;;6.70;;
41719;SDS011;27405;53.316;-6.294;2023-06-22T07:47:10;10.95;;;6.00;;
41719;SDS011;27405;53.316;-6.294;2023-06-22T07:49:35;9.70;;;5.47;;
41719;SDS011;27405;53.316;-6.294;2023-06-22T07:52:01;15.68;;;6.40;;
41719;SDS011;27405;53.316;-6.294;2023-06-22T07:54:27;14.15;;;6.32;;
41719;SDS011;27405;53.316;-6.294;2023-06-22T07:56:52;8.80;;;5.50;;
41719;SDS011;27405;53.316;-6.294;2023-06-22T07:59:18;12.35;;;5.93;;
41719;SDS011;27405;53.316;-6.294;2023-06-22T08:01:44;10.90;;;5.50;;
41719;SDS011;27405;53.316;-6.294;2023-06-22T08:04:09;10.02;;;5.22;;
41719;SDS011;27405;53.316;-6.294;2023-06-22T08:06:35;10.93;;;4.80;;
41719;SDS011;27405;53.316;-6.294;2023-06-22T08:09:01;16.95;;;5.22;;
41719;SDS011;27405;53.316;-6.294;2023-06-22T08:11:26;10.07;;;5.28;;
41719;SDS011;27405;53.316;-6.294;2023-06-22T08:13:53;9.02;;;4.30;;
41719;SDS011;27405;53.316;-6.294;2023-06-22T08:16:20;8.77;;;4.65;;
41719;SDS011;27405;53.316;-6.294;2023-06-22T08:18:46;8.32;;;4.47;;
41719;SDS011;27405;53.316;-6.294;2023-06-22T08:21:12;9.77;;;5.03;;
41719;SDS011;27405;53.316;-6.294;2023-06-22T08:23:38;8.80;;;4.70;;
41719;SDS011;27405;53.316;-6.294;2023-06-22T08:26:03;11.07;;;4.97;;
41719;SDS011;27405;53.316;-6.294;2023-06-22T08:28:29;11.10;;;5.28;;
41719;SDS011;27405;53.316;-6.294;2023-06-22T08:30:54;9.25;;;4.65;;
41719;SDS011;27405;53.316;-6.294;2023-06-22T08:33:20;9.48;;;4.57;;
41719;SDS011;27405;53.316;-6.294;2023-06-22T08:35:48;9.70;;;4.87;;
41719;SDS011;27405;53.316;-6.294;2023-06-22T08:38:14;14.57;;;4.95;;
41719;SDS011;27405;53.316;-6.294;2023-06-22T08:40:40;11.43;;;4.80;;
41719;SDS011;27405;53.316;-6.294;2023-06-22T08:43:06;13.18;;;5.07;;
41719;SDS011;27405;53.316;-6.294;2023-06-22T08:45:32;9.18;;;4.60;;
41719;SDS011;27405;53.316;-6.294;2023-06-22T08:47:57;11.02;;;4.88;;
41719;SDS011;27405;53.316;-6.294;2023-06-22T08:50:23;12.45;;;4.90;;
41719;SDS011;27405;53.316;-6.294;2023-06-22T08:52:49;12.95;;;4.40;;
41719;SDS011;27405;53.316;-6.294;2023-06-22T08:55:14;9.60;;;4.97;;
41719;SDS011;27405;53.316;-6.294;2023-06-22T08:57:40;9.43;;;4.30;;
41719;SDS011;27405;53.316;-6.294;2023-06-22T09:00:07;9.60;;;4.85;;
41719;SDS011;27405;53.316;-6.294;2023-06-22T09:02:52;8.32;;;4.38;;
41719;SDS011;27405;53.316;-6.294;2023-06-22T09:05:17;10.38;;;4.50;;
41719;SDS011;27405;53.316;-6.294;2023-06-22T09:07:43;12.20;;;4.30;;
41719;SDS011;27405;53.316;-6.294;2023-06-22T09:10:09;11.20;;;4.28;;
41719;SDS011;27405;53.316;-6.294;2023-06-22T09:12:35;7.30;;;4.03;;
41719;SDS011;27405;53.316;-6.294;2023-06-22T09:15:02;8.55;;;4.20;;
41719;SDS011;27405;53.316;-6.294;2023-06-22T09:17:29;14.25;;;4.40;;
41719;SDS011;27405;53.316;-6.294;2023-06-22T09:19:54;8.80;;;4.00;;
41719;SDS011;27405;53.316;-6.294;2023-06-22T09:22:20;9.07;;;4.20;;
41719;SDS011;27405;53.316;-6.294;2023-06-22T09:24:46;9.32;;;4.00;;
41719;SDS011;27405;53.316;-6.294;2023-06-22T09:27:11;12.63;;;4.05;;
41719;SDS011;27405;53.316;-6.294;2023-06-22T09:29:37;10.07;;;4.22;;
41719;SDS011;27405;53.316;-6.294;2023-06-22T09:32:03;9.70;;;3.80;;
41719;SDS011;27405;53.316;-6.294;2023-06-22T09:34:29;10.65;;;4.22;;
41719;SDS011;27405;53.316;-6.294;2023-06-22T09:36:56;9.55;;;4.20;;
41719;SDS011;27405;53.316;-6.294;2023-06-22T09:39:22;9.88;;;4.00;;
41719;SDS011;27405;53.316;-6.294;2023-06-22T09:41:48;12.30;;;4.68;;
41719;SDS011;27405;53.316;-6.294;2023-06-22T09:44:13;10.15;;;4.10;;
41719;SDS011;27405;53.316;-6.294;2023-06-22T09:46:39;13.15;;;4.38;;
41719;SDS011;27405;53.316;-6.294;2023-06-22T09:49:05;11.43;;;4.78;;
41719;SDS011;27405;53.316;-6.294;2023-06-22T09:51:30;8.68;;;3.90;;
41719;SDS011;27405;53.316;-6.294;2023-06-22T09:53:56;9.48;;;4.10;;
41719;SDS011;27405;53.316;-6.294;2023-06-22T09:56:23;9.77;;;4.15;;
41719;SDS011;27405;53.316;-6.294;2023-06-22T09:58:49;11.77;;;4.30;;
41719;SDS011;27405;53.316;-6.294;2023-06-22T10:03:43;6.55;;;3.50;;
41719;SDS011;27405;53.316;-6.294;2023-06-22T10:06:09;12.13;;;4.10;;
41719;SDS011;27405;53.316;-6.294;2023-06-22T10:08:35;10.20;;;4.10;;
41719;SDS011;27405;53.316;-6.294;2023-06-22T10:11:01;8.82;;;3.42;;
41719;SDS011;27405;53.316;-6.294;2023-06-22T10:13:27;8.65;;;3.88;;
41719;SDS011;27405;53.316;-6.294;2023-06-22T10:15:53;8.27;;;3.53;;
41719;SDS011;27405;53.316;-6.294;2023-06-22T10:18:19;5.22;;;3.22;;
41719;SDS011;27405;53.316;-6.294;2023-06-22T10:20:46;10.52;;;3.88;;
41719;SDS011;27405;53.316;-6.294;2023-06-22T10:23:14;8.55;;;3.53;;
41719;SDS011;27405;53.316;-6.294;2023-06-22T10:25:39;9.70;;;4.07;;
41719;SDS011;27405;53.316;-6.294;2023-06-22T10:28:05;9.52;;;4.00;;
41719;SDS011;27405;53.316;-6.294;2023-06-22T10:30:31;10.13;;;4.10;;
41719;SDS011;27405;53.316;-6.294;2023-06-22T10:32:56;8.10;;;3.35;;
41719;SDS011;27405;53.316;-6.294;2023-06-22T10:35:22;10.77;;;3.88;;
41719;SDS011;27405;53.316;-6.294;2023-06-22T10:37:48;8.93;;;3.30;;
41719;SDS011;27405;53.316;-6.294;2023-06-22T10:40:14;8.77;;;3.40;;
41719;SDS011;27405;53.316;-6.294;2023-06-22T10:42:41;9.15;;;3.55;;
41719;SDS011;27405;53.316;-6.294;2023-06-22T10:45:07;10.38;;;3.67;;
41719;SDS011;27405;53.316;-6.294;2023-06-22T10:47:33;11.73;;;3.95;;
41719;SDS011;27405;53.316;-6.294;2023-06-22T10:50:01;10.38;;;3.67;;
41719;SDS011;27405;53.316;-6.294;2023-06-22T10:52:27;11.20;;;3.78;;
41719;SDS011;27405;53.316;-6.294;2023-06-22T10:54:53;7.90;;;3.17;;
41719;SDS011;27405;53.316;-6.294;2023-06-22T10:57:18;9.70;;;3.65;;
41719;SDS011;27405;53.316;-6.294;2023-06-22T10:59:44;8.02;;;3.40;;
41719;SDS011;27405;53.316;-6.294;2023-06-22T11:02:10;6.63;;;3.38;;
41719;SDS011;27405;53.316;-6.294;2023-06-22T11:04:35;7.75;;;3.38;;
41719;SDS011;27405;53.316;-6.294;2023-06-22T11:07:01;6.47;;;3.50;;
41719;SDS011;27405;53.316;-6.294;2023-06-22T11:09:27;10.65;;;4.28;;
41719;SDS011;27405;53.316;-6.294;2023-06-22T11:11:53;8.70;;;3.92;;
41719;SDS011;27405;53.316;-6.294;2023-06-22T11:14:18;7.70;;;3.78;;
41719;SDS011;27405;53.316;-6.294;2023-06-22T11:16:45;7.35;;;3.42;;
41719;SDS011;27405;53.316;-6.294;2023-06-22T11:19:11;7.80;;;3.30;;
41719;SDS011;27405;53.316;-6.294;2023-06-22T11:21:37;12.07;;;3.65;;
41719;SDS011;27405;53.316;-6.294;2023-06-22T11:24:03;8.60;;;3.75;;
41719;SDS011;27405;53.316;-6.294;2023-06-22T11:26:29;12.88;;;4.50;;
41719;SDS011;27405;53.316;-6.294;2023-06-22T11:28:56;9.45;;;3.78;;
41719;SDS011;27405;53.316;-6.294;2023-06-22T11:31:22;7.13;;;3.67;;
41719;SDS011;27405;53.316;-6.294;2023-06-22T11:33:48;8.48;;;3.75;;
41719;SDS011;27405;53.316;-6.294;2023-06-22T11:36:14;7.85;;;3.50;;
41719;SDS011;27405;53.316;-6.294;2023-06-22T11:38:40;8.57;;;4.25;;
41719;SDS011;27405;53.316;-6.294;2023-06-22T11:41:07;10.60;;;3.90;;
41719;SDS011;27405;53.316;-6.294;2023-06-22T11:43:33;7.20;;;3.65;;
41719;SDS011;27405;53.316;-6.294;2023-06-22T11:45:59;7.63;;;3.70;;
41719;SDS011;27405;53.316;-6.294;2023-06-22T11:48:26;13.43;;;4.15;;
41719;SDS011;27405;53.316;-6.294;2023-06-22T11:50:51;8.77;;;4.28;;
41719;SDS011;27405;53.316;-6.294;2023-06-22T11:53:17;7.45;;;3.65;;
41719;SDS011;27405;53.316;-6.294;2023-06-22T11:55:43;7.40;;;3.53;;
41719;SDS011;27405;53.316;-6.294;2023-06-22T11:58:09;8.63;;;4.35;;
41719;SDS011;27405;53.316;-6.294;2023-06-22T12:00:36;7.97;;;4.03;;
41719;SDS011;27405;53.316;-6.294;2023-06-22T12:03:02;9.38;;;4.32;;
41719;SDS011;27405;53.316;-6.294;2023-06-22T12:05:28;6.43;;;3.72;;
41719;SDS011;27405;53.316;-6.294;2023-06-22T12:07:54;10.85;;;4.28;;
41719;SDS011;27405;53.316;-6.294;2023-06-22T12:10:21;10.20;;;4.50;;
41719;SDS011;27405;53.316;-6.294;2023-06-22T12:12:48;9.05;;;4.35;;
41719;SDS011;27405;53.316;-6.294;2023-06-22T12:15:13;9.43;;;4.72;;
41719;SDS011;27405;53.316;-6.294;2023-06-22T12:17:39;9.68;;;5.00;;
41719;SDS011;27405;53.316;-6.294;2023-06-22T12:20:06;8.18;;;4.47;;
41719;SDS011;27405;53.316;-6.294;2023-06-22T12:22:33;8.40;;;4.28;;
41719;SDS011;27405;53.316;-6.294;2023-06-22T12:24:59;8.80;;;4.35;;
41719;SDS011;27405;53.316;-6.294;2023-06-22T12:27:25;9.10;;;4.15;;
41719;SDS011;27405;53.316;-6.294;2023-06-22T12:29:51;9.93;;;5.03;;
41719;SDS011;27405;53.316;-6.294;2023-06-22T12:32:17;10.82;;;4.72;;
41719;SDS011;27405;53.316;-6.294;2023-06-22T12:34:43;10.35;;;4.50;;
41719;SDS011;27405;53.316;-6.294;2023-06-22T12:37:09;8.23;;;3.80;;
41719;SDS011;27405;53.316;-6.294;2023-06-22T12:39:35;10.50;;;4.53;;
41719;SDS011;27405;53.316;-6.294;2023-06-22T12:42:01;7.35;;;3.90;;
41719;SDS011;27405;53.316;-6.294;2023-06-22T12:44:27;10.20;;;4.28;;
41719;SDS011;27405;53.316;-6.294;2023-06-22T12:46:52;8.57;;;3.95;;
41719;SDS011;27405;53.316;-6.294;2023-06-22T12:49:18;10.52;;;4.45;;
41719;SDS011;27405;53.316;-6.294;2023-06-22T12:51:44;7.68;;;4.20;;
41719;SDS011;27405;53.316;-6.294;2023-06-22T12:54:10;14.85;;;4.55;;
41719;SDS011;27405;53.316;-6.294;2023-06-22T12:56:37;9.35;;;4.38;;
41719;SDS011;27405;53.316;-6.294;2023-06-22T12:59:03;8.20;;;4.15;;
41719;SDS011;27405;53.316;-6.294;2023-06-22T13:01:29;6.93;;;4.03;;
41719;SDS011;27405;53.316;-6.294;2023-06-22T13:03:55;6.47;;;3.47;;
41719;SDS011;27405;53.316;-6.294;2023-06-22T13:06:21;8.75;;;3.65;;
41719;SDS011;27405;53.316;-6.294;2023-06-22T13:08:47;9.00;;;3.72;;
41719;SDS011;27405;53.316;-6.294;2023-06-22T13:11:13;6.88;;;3.20;;
41719;SDS011;27405;53.316;-6.294;2023-06-22T13:13:39;6.10;;;3.35;;
41719;SDS011;27405;53.316;-6.294;2023-06-22T13:16:05;8.55;;;3.95;;
41719;SDS011;27405;53.316;-6.294;2023-06-22T13:18:30;6.30;;;3.50;;
41719;SDS011;27405;53.316;-6.294;2023-06-22T13:20:56;11.18;;;4.10;;
41719;SDS011;27405;53.316;-6.294;2023-06-22T13:23:23;7.93;;;3.47;;
41719;SDS011;27405;53.316;-6.294;2023-06-22T13:25:49;7.35;;;3.60;;
41719;SDS011;27405;53.316;-6.294;2023-06-22T13:28:14;7.90;;;3.83;;
41719;SDS011;27405;53.316;-6.294;2023-06-22T13:30:41;5.75;;;3.60;;
41719;SDS011;27405;53.316;-6.294;2023-06-22T13:33:08;6.95;;;3.78;;
41719;SDS011;27405;53.316;-6.294;2023-06-22T13:35:34;6.25;;;3.35;;
41719;SDS011;27405;53.316;-6.294;2023-06-22T13:38:03;8.68;;;3.75;;
41719;SDS011;27405;53.316;-6.294;2023-06-22T13:40:28;5.25;;;3.10;;
41719;SDS011;27405;53.316;-6.294;2023-06-22T13:42:55;7.18;;;3.55;;
41719;SDS011;27405;53.316;-6.294;2023-06-22T13:45:20;6.07;;;3.40;;
41719;SDS011;27405;53.316;-6.294;2023-06-22T13:47:46;4.15;;;3.30;;
41719;SDS011;27405;53.316;-6.294;2023-06-22T13:50:12;6.88;;;3.38;;
41719;SDS011;27405;53.316;-6.294;2023-06-22T13:52:38;8.95;;;3.03;;
41719;SDS011;27405;53.316;-6.294;2023-06-22T13:55:04;6.43;;;3.35;;
41719;SDS011;27405;53.316;-6.294;2023-06-22T13:57:31;8.05;;;3.25;;
41719;SDS011;27405;53.316;-6.294;2023-06-22T13:59:58;7.05;;;3.58;;
41719;SDS011;27405;53.316;-6.294;2023-06-22T14:02:23;6.45;;;3.13;;
41719;SDS011;27405;53.316;-6.294;2023-06-22T14:04:50;4.50;;;2.90;;
41719;SDS011;27405;53.316;-6.294;2023-06-22T14:07:16;6.45;;;3.25;;
41719;SDS011;27405;53.316;-6.294;2023-06-22T14:09:41;5.47;;;3.17;;
41719;SDS011;27405;53.316;-6.294;2023-06-22T14:12:07;7.47;;;3.20;;
41719;SDS011;27405;53.316;-6.294;2023-06-22T14:14:33;12.27;;;3.97;;
41719;SDS011;27405;53.316;-6.294;2023-06-22T14:16:59;9.15;;;3.30;;
41719;SDS011;27405;53.316;-6.294;2023-06-22T14:19:25;6.30;;;2.97;;
41719;SDS011;27405;53.316;-6.294;2023-06-22T14:21:51;3.55;;;2.58;;
41719;SDS011;27405;53.316;-6.294;2023-06-22T14:24:17;7.53;;;3.40;;
41719;SDS011;27405;53.316;-6.294;2023-06-22T14:26:42;4.68;;;3.20;;
41719;SDS011;27405;53.316;-6.294;2023-06-22T14:29:08;4.72;;;2.97;;
41719;SDS011;27405;53.316;-6.294;2023-06-22T14:31:34;6.32;;;3.22;;